createdAt,value
2018-05-23T00:00:15.600Z,1012.66
2018-05-23T00:01:25.599Z,1012.64
2018-05-23T00:02:35.583Z,1012.69
2018-05-23T00:03:45.556Z,1012.67
2018-05-23T00:04:55.264Z,1012.63
2018-05-23T00:06:05.262Z,1012.63
2018-05-23T00:07:14.983Z,1012.62
2018-05-23T00:08:24.445Z,1012.61
2018-05-23T00:09:34.411Z,1012.6
2018-05-23T00:10:44.389Z,1012.62
2018-05-23T00:11:54.387Z,1012.63
2018-05-23T00:13:04.367Z,1012.59
2018-05-23T00:14:14.330Z,1012.63
2018-05-23T00:15:24.315Z,1012.62
2018-05-23T00:16:33.768Z,1012.62
2018-05-23T00:17:43.735Z,1012.6
2018-05-23T00:18:53.445Z,1012.65
2018-05-23T00:20:03.419Z,1012.66
2018-05-23T00:21:13.384Z,1012.68
2018-05-23T00:22:22.836Z,1012.69
2018-05-23T00:23:32.813Z,1012.7
2018-05-23T00:24:42.775Z,1012.71
2018-05-23T00:25:52.758Z,1012.72
2018-05-23T00:27:02.758Z,1012.72
2018-05-23T00:28:12.722Z,1012.7
2018-05-23T00:29:22.169Z,1012.7
2018-05-23T00:30:32.143Z,1012.7
2018-05-23T00:31:42.122Z,1012.67
2018-05-23T00:32:51.842Z,1012.7
2018-05-23T00:34:01.833Z,1012.72
2018-05-23T00:35:11.827Z,1012.69
2018-05-23T00:36:21.552Z,1012.68
2018-05-23T00:37:31.545Z,1012.68
2018-05-23T00:38:41.519Z,1012.67
2018-05-23T00:39:51.235Z,1012.69
2018-05-23T00:41:00.952Z,1012.68
2018-05-23T00:42:10.926Z,1012.73
2018-05-23T00:43:20.897Z,1012.76
2018-05-23T00:44:30.880Z,1012.78
2018-05-23T00:45:40.852Z,1012.78
2018-05-23T00:46:50.563Z,1012.76
2018-05-23T00:48:00.545Z,1012.76
2018-05-23T00:49:10.527Z,1012.79
2018-05-23T00:50:20.520Z,1012.8
2018-05-23T00:51:30.755Z,1012.8
2018-05-23T00:52:40.789Z,1012.8
2018-05-23T00:53:50.755Z,1012.79
2018-05-23T00:55:00.204Z,1012.81
2018-05-23T00:56:10.181Z,1012.81
2018-05-23T00:57:19.628Z,1012.84
2018-05-23T00:58:29.599Z,1012.84
2018-05-23T00:59:39.575Z,1012.84
2018-05-23T01:00:49.537Z,1012.83
2018-05-23T01:01:59.505Z,1012.84
2018-05-23T01:03:09.482Z,1012.86
2018-05-23T01:04:19.200Z,1012.87
2018-05-23T01:05:29.167Z,1012.83
2018-05-23T01:06:39.159Z,1012.82
2018-05-23T01:07:49.117Z,1012.86
2018-05-23T01:08:59.087Z,1012.84
2018-05-23T01:10:09.067Z,1012.88
2018-05-23T01:11:19.057Z,1012.84
2018-05-23T01:12:29.027Z,1012.88
2018-05-23T01:13:38.993Z,1012.87
2018-05-23T01:14:48.755Z,1012.87
2018-05-23T01:15:58.535Z,1012.91
2018-05-23T01:17:08.245Z,1012.92
2018-05-23T01:18:18.220Z,1012.94
2018-05-23T01:19:27.953Z,1012.97
2018-05-23T01:20:37.668Z,1012.98
2018-05-23T01:21:47.682Z,1012.97
2018-05-23T01:22:57.672Z,1012.97
2018-05-23T01:24:07.659Z,1013
2018-05-23T01:25:17.371Z,1013.04
2018-05-23T01:26:27.103Z,1013.08
2018-05-23T01:27:37.069Z,1013.09
2018-05-23T01:28:47.040Z,1013.05
2018-05-23T01:29:57.028Z,1013.04
2018-05-23T01:31:06.737Z,1013.02
2018-05-23T01:32:16.442Z,1013
2018-05-23T01:33:26.471Z,1013.07
2018-05-23T01:34:36.470Z,1013.06
2018-05-23T01:35:46.462Z,1013.08
2018-05-23T01:36:56.446Z,1013.08
2018-05-23T01:38:06.420Z,1013.13
2018-05-23T01:39:16.164Z,1013.15
2018-05-23T01:40:25.881Z,1013.16
2018-05-23T01:41:35.587Z,1013.14
2018-05-23T01:42:45.548Z,1013.14
2018-05-23T01:43:55.255Z,1013.11
2018-05-23T01:45:05.216Z,1013.14
2018-05-23T01:46:15.199Z,1013.15
2018-05-23T01:47:24.652Z,1013.17
2018-05-23T01:48:34.627Z,1013.16
2018-05-23T01:49:44.598Z,1013.16
2018-05-23T01:50:54.571Z,1013.15
2018-05-23T01:52:04.539Z,1013.17
2018-05-23T01:53:14.514Z,1013.23
2018-05-23T01:54:24.474Z,1013.18
2018-05-23T01:55:34.453Z,1013.17
2018-05-23T01:56:44.422Z,1013.19
2018-05-23T01:57:54.167Z,1013.18
2018-05-23T01:59:03.904Z,1013.2
2018-05-23T02:00:13.882Z,1013.17
2018-05-23T02:01:23.881Z,1013.19
2018-05-23T02:02:33.845Z,1013.19
2018-05-23T02:03:43.831Z,1013.18
2018-05-23T02:04:54.037Z,1013.22
2018-05-23T02:06:04.001Z,1013.18
2018-05-23T02:07:13.189Z,1013.16
2018-05-23T02:08:22.897Z,1013.2
2018-05-23T02:09:32.877Z,1013.18
2018-05-23T02:10:42.852Z,1013.17
2018-05-23T02:11:52.815Z,1013.17
2018-05-23T02:13:02.614Z,1013.18
2018-05-23T02:14:12.575Z,1013.18
2018-05-23T02:15:22.033Z,1013.17
2018-05-23T02:16:32.005Z,1013.19
2018-05-23T02:17:41.991Z,1013.2
2018-05-23T02:18:51.692Z,1013.17
2018-05-23T02:20:01.664Z,1013.22
2018-05-23T02:21:11.432Z,1013.21
2018-05-23T02:22:21.490Z,1013.17
2018-05-23T02:23:31.470Z,1013.19
2018-05-23T02:24:41.438Z,1013.16
2018-05-23T02:25:51.136Z,1013.2
2018-05-23T02:27:01.103Z,1013.22
2018-05-23T02:28:11.068Z,1013.19
2018-05-23T02:29:20.770Z,1013.24
2018-05-23T02:30:30.761Z,1013.18
2018-05-23T02:31:40.765Z,1013.21
2018-05-23T02:32:50.248Z,1013.24
2018-05-23T02:34:00.222Z,1013.2
2018-05-23T02:35:10.201Z,1013.24
2018-05-23T02:36:20.176Z,1013.21
2018-05-23T02:37:30.166Z,1013.21
2018-05-23T02:38:39.357Z,1013.25
2018-05-23T02:39:49.333Z,1013.24
2018-05-23T02:40:59.304Z,1013.27
2018-05-23T02:42:09.029Z,1013.29
2018-05-23T02:43:18.744Z,1013.33
2018-05-23T02:44:28.468Z,1013.28
2018-05-23T02:45:38.205Z,1013.34
2018-05-23T02:46:48.191Z,1013.29
2018-05-23T02:47:58.279Z,1013.36
2018-05-23T02:49:08.009Z,1013.34
2018-05-23T02:50:17.987Z,1013.35
2018-05-23T02:51:27.959Z,1013.4
2018-05-23T02:52:37.937Z,1013.41
2018-05-23T02:53:47.918Z,1013.42
2018-05-23T02:54:57.637Z,1013.46
2018-05-23T02:56:07.363Z,1013.45
2018-05-23T02:57:17.393Z,1013.45
2018-05-23T02:58:27.111Z,1013.43
2018-05-23T02:59:36.843Z,1013.41
2018-05-23T03:00:46.572Z,1013.42
2018-05-23T03:01:56.565Z,1013.45
2018-05-23T03:03:06.548Z,1013.43
2018-05-23T03:04:16.673Z,1013.43
2018-05-23T03:05:26.134Z,1013.46
2018-05-23T03:06:35.582Z,1013.48
2018-05-23T03:07:45.558Z,1013.52
2018-05-23T03:08:55.266Z,1013.55
2018-05-23T03:10:05.260Z,1013.51
2018-05-23T03:11:14.822Z,1013.48
2018-05-23T03:12:24.527Z,1013.52
2018-05-23T03:13:34.252Z,1013.52
2018-05-23T03:14:44.243Z,1013.5
2018-05-23T03:15:54.234Z,1013.47
2018-05-23T03:17:04.212Z,1013.5
2018-05-23T03:18:13.931Z,1013.5
2018-05-23T03:19:23.901Z,1013.52
2018-05-23T03:20:33.612Z,1013.55
2018-05-23T03:21:43.570Z,1013.58
2018-05-23T03:22:53.609Z,1013.62
2018-05-23T03:24:03.648Z,1013.67
2018-05-23T03:25:13.633Z,1013.63
2018-05-23T03:26:23.607Z,1013.65
2018-05-23T03:27:33.584Z,1013.69
2018-05-23T03:28:43.556Z,1013.74
2018-05-23T03:29:53.604Z,1013.76
2018-05-23T03:31:03.573Z,1013.75
2018-05-23T03:32:13.283Z,1013.78
2018-05-23T03:33:23.246Z,1013.8
2018-05-23T03:34:33.254Z,1013.83
2018-05-23T03:35:42.975Z,1013.82
2018-05-23T03:36:52.942Z,1013.83
2018-05-23T03:38:02.953Z,1013.84
2018-05-23T03:39:12.922Z,1013.78
2018-05-23T03:40:22.894Z,1013.85
2018-05-23T03:41:32.599Z,1013.87
2018-05-23T03:42:42.580Z,1013.86
2018-05-23T03:43:52.562Z,1013.89
2018-05-23T03:45:02.539Z,1013.86
2018-05-23T03:46:12.526Z,1013.87
2018-05-23T03:47:22.509Z,1013.89
2018-05-23T03:48:32.484Z,1013.89
2018-05-23T03:49:42.188Z,1013.88
2018-05-23T03:50:51.901Z,1013.91
2018-05-23T03:52:01.880Z,1013.92
2018-05-23T03:53:11.865Z,1013.91
2018-05-23T03:54:21.840Z,1014.01
2018-05-23T03:55:31.639Z,1013.98
2018-05-23T03:56:41.616Z,1013.98
2018-05-23T03:57:51.333Z,1014.02
2018-05-23T03:59:00.778Z,1014.02
2018-05-23T04:00:10.492Z,1014.02
2018-05-23T04:01:20.473Z,1014.09
2018-05-23T04:02:30.441Z,1014.09
2018-05-23T04:03:40.449Z,1014.1
2018-05-23T04:04:50.196Z,1014.08
2018-05-23T04:06:00.126Z,1014.11
2018-05-23T04:07:10.103Z,1014.11
2018-05-23T04:08:20.092Z,1014.14
2018-05-23T04:09:30.072Z,1014.16
2018-05-23T04:10:40.281Z,1014.12
2018-05-23T04:11:50.264Z,1014.15
2018-05-23T04:13:00.324Z,1014.15
2018-05-23T04:14:10.287Z,1014.14
2018-05-23T04:15:20.092Z,1014.16
2018-05-23T04:16:30.367Z,1014.15
2018-05-23T04:17:39.818Z,1014.17
2018-05-23T04:18:49.792Z,1014.22
2018-05-23T04:19:59.496Z,1014.22
2018-05-23T04:21:09.234Z,1014.23
2018-05-23T04:22:19.219Z,1014.29
2018-05-23T04:23:29.179Z,1014.31
2018-05-23T04:24:39.141Z,1014.27
2018-05-23T04:25:49.192Z,1014.31
2018-05-23T04:26:59.172Z,1014.3
2018-05-23T04:28:09.153Z,1014.31
2018-05-23T04:29:18.606Z,1014.3
2018-05-23T04:30:28.320Z,1014.28
2018-05-23T04:31:38.030Z,1014.31
2018-05-23T04:32:48.006Z,1014.31
2018-05-23T04:33:57.963Z,1014.34
2018-05-23T04:35:07.691Z,1014.32
2018-05-23T04:36:17.409Z,1014.34
2018-05-23T04:37:27.209Z,1014.34
2018-05-23T04:38:37.179Z,1014.32
2018-05-23T04:39:47.141Z,1014.38
2018-05-23T04:40:57.125Z,1014.39
2018-05-23T04:42:06.929Z,1014.37
2018-05-23T04:43:16.903Z,1014.4
2018-05-23T04:44:26.886Z,1014.37
2018-05-23T04:45:36.597Z,1014.44
2018-05-23T04:46:46.575Z,1014.43
2018-05-23T04:47:56.546Z,1014.44
2018-05-23T04:49:06.532Z,1014.43
2018-05-23T04:50:16.529Z,1014.48
2018-05-23T04:51:26.494Z,1014.45
2018-05-23T04:52:36.458Z,1014.45
2018-05-23T04:53:46.430Z,1014.43
2018-05-23T04:54:56.407Z,1014.41
2018-05-23T04:56:06.132Z,1014.43
2018-05-23T04:57:15.848Z,1014.45
2018-05-23T04:58:25.825Z,1014.43
2018-05-23T04:59:35.803Z,1014.46
2018-05-23T05:00:45.780Z,1014.46
2018-05-23T05:01:55.749Z,1014.51
2018-05-23T05:03:05.740Z,1014.51
2018-05-23T05:04:15.718Z,1014.5
2018-05-23T05:05:25.780Z,1014.57
2018-05-23T05:06:35.760Z,1014.58
2018-05-23T05:07:45.728Z,1014.62
2018-05-23T05:08:55.707Z,1014.65
2018-05-23T05:10:05.743Z,1014.63
2018-05-23T05:11:15.981Z,1014.7
2018-05-23T05:12:25.945Z,1014.69
2018-05-23T05:13:35.945Z,1014.71
2018-05-23T05:14:46.159Z,1014.68
2018-05-23T05:15:55.886Z,1014.71
2018-05-23T05:17:05.869Z,1014.72
2018-05-23T05:18:15.583Z,1014.76
2018-05-23T05:19:25.030Z,1014.79
2018-05-23T05:20:35.000Z,1014.77
2018-05-23T05:21:44.714Z,1014.81
2018-05-23T05:22:54.706Z,1014.78
2018-05-23T05:24:04.419Z,1014.83
2018-05-23T05:25:14.469Z,1014.84
2018-05-23T05:26:24.453Z,1014.86
2018-05-23T05:27:34.434Z,1014.89
2018-05-23T05:28:44.174Z,1014.89
2018-05-23T05:29:54.153Z,1014.9
2018-05-23T05:31:04.170Z,1014.9
2018-05-23T05:32:14.152Z,1014.93
2018-05-23T05:33:23.880Z,1014.97
2018-05-23T05:34:33.601Z,1014.95
2018-05-23T05:35:43.642Z,1014.95
2018-05-23T05:36:53.365Z,1014.94
2018-05-23T05:38:03.101Z,1014.94
2018-05-23T05:39:13.066Z,1014.95
2018-05-23T05:40:22.888Z,1014.95
2018-05-23T05:41:32.985Z,1014.96
2018-05-23T05:42:42.986Z,1014.96
2018-05-23T05:43:53.000Z,1015.01
2018-05-23T05:45:02.998Z,1015.06
2018-05-23T05:46:13.004Z,1015.03
2018-05-23T05:47:22.736Z,1015.03
2018-05-23T05:48:32.452Z,1015.05
2018-05-23T05:49:42.429Z,1015.03
2018-05-23T05:50:52.535Z,1015.08
2018-05-23T05:52:02.552Z,1015.19
2018-05-23T05:53:12.543Z,1015.17
2018-05-23T05:54:22.274Z,1015.22
2018-05-23T05:55:32.243Z,1015.21
2018-05-23T05:56:42.224Z,1015.23
2018-05-23T05:57:52.203Z,1015.23
2018-05-23T05:59:02.185Z,1015.26
2018-05-23T06:00:12.160Z,1015.28
2018-05-23T06:01:22.170Z,1015.27
2018-05-23T06:02:31.882Z,1015.23
2018-05-23T06:03:41.858Z,1015.28
2018-05-23T06:04:51.825Z,1015.27
2018-05-23T06:06:01.810Z,1015.26
2018-05-23T06:07:11.544Z,1015.29
2018-05-23T06:08:21.521Z,1015.28
2018-05-23T06:09:31.580Z,1015.29
2018-05-23T06:10:41.625Z,1015.3
2018-05-23T06:11:51.371Z,1015.32
2018-05-23T06:13:01.380Z,1015.34
2018-05-23T06:14:11.137Z,1015.37
2018-05-23T06:15:20.863Z,1015.35
2018-05-23T06:16:30.596Z,1015.39
2018-05-23T06:17:40.318Z,1015.42
2018-05-23T06:18:49.777Z,1015.41
2018-05-23T06:19:59.758Z,1015.42
2018-05-23T06:21:09.487Z,1015.42
2018-05-23T06:22:19.567Z,1015.44
2018-05-23T06:23:29.604Z,1015.44
2018-05-23T06:24:39.594Z,1015.46
2018-05-23T06:25:49.626Z,1015.46
2018-05-23T06:26:59.373Z,1015.45
2018-05-23T06:28:09.351Z,1015.45
2018-05-23T06:29:19.066Z,1015.46
2018-05-23T06:30:29.149Z,1015.51
2018-05-23T06:31:38.940Z,1015.52
2018-05-23T06:32:48.943Z,1015.53
2018-05-23T06:33:58.987Z,1015.53
2018-05-23T06:35:09.005Z,1015.6
2018-05-23T06:36:19.131Z,1015.55
2018-05-23T06:37:29.173Z,1015.62
2018-05-23T06:38:38.901Z,1015.64
2018-05-23T06:39:48.889Z,1015.6
2018-05-23T06:40:58.869Z,1015.62
2018-05-23T06:42:08.326Z,1015.58
2018-05-23T06:43:18.060Z,1015.6
2018-05-23T06:44:27.851Z,1015.66
2018-05-23T06:45:37.312Z,1015.67
2018-05-23T06:46:47.297Z,1015.67
2018-05-23T06:47:57.308Z,1015.7
2018-05-23T06:49:07.348Z,1015.73
2018-05-23T06:50:17.370Z,1015.74
2018-05-23T06:51:26.962Z,1015.74
2018-05-23T06:52:37.218Z,1015.75
2018-05-23T06:53:47.191Z,1015.77
2018-05-23T06:54:57.178Z,1015.76
2018-05-23T06:56:07.159Z,1015.78
2018-05-23T06:57:17.139Z,1015.74
2018-05-23T06:58:27.147Z,1015.77
2018-05-23T06:59:36.862Z,1015.76
2018-05-23T07:00:46.592Z,1015.72
2018-05-23T07:01:56.583Z,1015.78
2018-05-23T07:03:06.303Z,1015.78
2018-05-23T07:04:16.304Z,1015.76
2018-05-23T07:05:26.286Z,1015.78
2018-05-23T07:06:35.771Z,1015.78
2018-05-23T07:07:45.753Z,1015.79
2018-05-23T07:08:55.480Z,1015.74
2018-05-23T07:10:04.937Z,1015.76
2018-05-23T07:11:15.044Z,1015.74
2018-05-23T07:12:25.026Z,1015.76
2018-05-23T07:13:34.785Z,1015.72
2018-05-23T07:14:44.783Z,1015.76
2018-05-23T07:15:54.504Z,1015.76
2018-05-23T07:17:04.241Z,1015.74
2018-05-23T07:18:14.019Z,1015.75
2018-05-23T07:19:24.019Z,1015.77
2018-05-23T07:20:33.997Z,1015.78
2018-05-23T07:21:43.495Z,1015.75
2018-05-23T07:22:53.248Z,1015.78
2018-05-23T07:24:03.272Z,1015.71
2018-05-23T07:25:13.382Z,1015.74
2018-05-23T07:26:23.363Z,1015.8
2018-05-23T07:27:33.353Z,1015.8
2018-05-23T07:28:43.332Z,1015.75
2018-05-23T07:29:53.077Z,1015.8
2018-05-23T07:31:03.007Z,1015.79
2018-05-23T07:32:12.741Z,1015.8
2018-05-23T07:33:22.726Z,1015.81
2018-05-23T07:34:32.453Z,1015.79
2018-05-23T07:35:42.458Z,1015.78
2018-05-23T07:36:52.457Z,1015.9
2018-05-23T07:38:02.448Z,1015.87
2018-05-23T07:39:12.417Z,1015.9
2018-05-23T07:40:22.145Z,1015.9
2018-05-23T07:41:32.147Z,1015.86
2018-05-23T07:42:42.123Z,1015.83
2018-05-23T07:43:52.114Z,1015.83
2018-05-23T07:45:02.103Z,1015.87
2018-05-23T07:46:12.099Z,1015.86
2018-05-23T07:47:21.822Z,1015.86
2018-05-23T07:48:31.832Z,1015.87
2018-05-23T07:49:41.818Z,1015.81
2018-05-23T07:50:51.794Z,1015.83
2018-05-23T07:52:01.773Z,1015.89
2018-05-23T07:53:11.780Z,1015.83
2018-05-23T07:54:21.775Z,1015.88
2018-05-23T07:55:31.524Z,1015.84
2018-05-23T07:56:41.523Z,1015.9
2018-05-23T07:57:51.642Z,1015.9
2018-05-23T07:59:01.640Z,1015.9
2018-05-23T08:00:11.710Z,1015.89
2018-05-23T08:01:21.698Z,1015.88
2018-05-23T08:02:31.720Z,1015.92
2018-05-23T08:03:41.503Z,1015.95
2018-05-23T08:04:51.219Z,1015.92
2018-05-23T08:06:01.200Z,1015.92
2018-05-23T08:07:11.192Z,1015.95
2018-05-23T08:08:20.664Z,1015.97
2018-05-23T08:09:30.641Z,1015.99
2018-05-23T08:10:40.622Z,1015.95
2018-05-23T08:11:50.617Z,1016
2018-05-23T08:13:00.624Z,1015.98
2018-05-23T08:14:10.352Z,1015.96
2018-05-23T08:15:19.807Z,1015.99
2018-05-23T08:16:29.813Z,1016
2018-05-23T08:17:39.993Z,1016.03
2018-05-23T08:18:49.720Z,1016
2018-05-23T08:19:59.717Z,1015.98
2018-05-23T08:21:09.442Z,1016.01
2018-05-23T08:22:19.160Z,1016.02
2018-05-23T08:23:29.394Z,1015.98
2018-05-23T08:24:39.133Z,1016.04
2018-05-23T08:25:49.145Z,1016.02
2018-05-23T08:26:59.129Z,1016.06
2018-05-23T08:28:09.127Z,1016.01
2018-05-23T08:29:19.110Z,1016.08
2018-05-23T08:30:29.113Z,1016.06
2018-05-23T08:31:38.856Z,1016.08
2018-05-23T08:32:48.860Z,1016.1
2018-05-23T08:33:58.846Z,1016.11
2018-05-23T08:35:08.576Z,1016.12
2018-05-23T08:36:18.326Z,1016.17
2018-05-23T08:37:28.258Z,1016.13
2018-05-23T08:38:37.986Z,1016.12
2018-05-23T08:39:47.811Z,1016.12
2018-05-23T08:40:57.565Z,1016.16
2018-05-23T08:42:07.326Z,1016.2
2018-05-23T08:43:17.353Z,1016.1
2018-05-23T08:44:27.384Z,1016.11
2018-05-23T08:45:37.406Z,1016.15
2018-05-23T08:46:47.450Z,1016.07
2018-05-23T08:47:57.194Z,1016.12
2018-05-23T08:49:07.179Z,1016.18
2018-05-23T08:50:17.164Z,1016.14
2018-05-23T08:51:27.151Z,1016.15
2018-05-23T08:52:37.155Z,1016.2
2018-05-23T08:53:47.146Z,1016.24
2018-05-23T08:54:57.143Z,1016.22
2018-05-23T08:56:07.163Z,1016.26
2018-05-23T08:57:16.889Z,1016.23
2018-05-23T08:58:26.895Z,1016.26
2018-05-23T08:59:36.646Z,1016.25
2018-05-23T09:00:46.668Z,1016.33
2018-05-23T09:01:56.673Z,1016.34
2018-05-23T09:03:06.427Z,1016.33
2018-05-23T09:04:16.437Z,1016.33
2018-05-23T09:05:26.435Z,1016.31
2018-05-23T09:06:36.182Z,1016.32
2018-05-23T09:07:45.929Z,1016.25
2018-05-23T09:08:55.931Z,1016.31
2018-05-23T09:10:06.158Z,1016.31
2018-05-23T09:11:16.169Z,1016.35
2018-05-23T09:12:26.323Z,1016.38
2018-05-23T09:13:37.168Z,1016.39
2018-05-23T09:14:46.893Z,1016.41
2018-05-23T09:15:56.629Z,1016.47
2018-05-23T09:17:06.627Z,1016.48
2018-05-23T09:18:16.357Z,1016.39
2018-05-23T09:19:26.096Z,1016.42
2018-05-23T09:20:35.880Z,1016.43
2018-05-23T09:21:45.613Z,1016.47
2018-05-23T09:22:55.648Z,1016.43
2018-05-23T09:24:05.647Z,1016.42
2018-05-23T09:25:15.675Z,1016.44
2018-05-23T09:26:25.831Z,1016.43
2018-05-23T09:27:35.601Z,1016.43
2018-05-23T09:28:45.637Z,1016.43
2018-05-23T09:29:55.723Z,1016.48
2018-05-23T09:31:05.741Z,1016.46
2018-05-23T09:32:15.875Z,1016.47
2018-05-23T09:33:26.115Z,1016.48
2018-05-23T09:34:36.106Z,1016.5
2018-05-23T09:35:46.117Z,1016.51
2018-05-23T09:36:56.129Z,1016.5
2018-05-23T09:38:06.145Z,1016.48
2018-05-23T09:39:15.997Z,1016.43
2018-05-23T09:40:26.135Z,1016.47
2018-05-23T09:41:36.141Z,1016.48
2018-05-23T09:42:45.901Z,1016.52
2018-05-23T09:43:55.911Z,1016.49
2018-05-23T09:45:05.966Z,1016.47
2018-05-23T09:46:16.363Z,1016.54
2018-05-23T09:47:26.403Z,1016.52
2018-05-23T09:48:36.152Z,1016.5
2018-05-23T09:49:46.178Z,1016.49
2018-05-23T09:50:55.925Z,1016.46
2018-05-23T09:52:05.962Z,1016.47
2018-05-23T09:53:16.385Z,1016.46
2018-05-23T09:54:26.107Z,1016.47
2018-05-23T09:55:36.207Z,1016.4
2018-05-23T09:56:46.217Z,1016.42
2018-05-23T09:57:56.201Z,1016.51
2018-05-23T09:59:06.210Z,1016.44
2018-05-23T10:00:16.218Z,1016.48
2018-05-23T10:01:26.306Z,1016.55
2018-05-23T10:02:36.271Z,1016.53
2018-05-23T10:03:46.265Z,1016.49
2018-05-23T10:04:56.253Z,1016.48
2018-05-23T10:06:06.233Z,1016.52
2018-05-23T10:07:16.238Z,1016.47
2018-05-23T10:08:26.264Z,1016.43
2018-05-23T10:09:36.258Z,1016.45
2018-05-23T10:10:46.237Z,1016.41
2018-05-23T10:11:56.259Z,1016.44
2018-05-23T10:13:05.998Z,1016.42
2018-05-23T10:14:15.745Z,1016.5
2018-05-23T10:15:25.493Z,1016.42
2018-05-23T10:16:35.575Z,1016.48
2018-05-23T10:17:45.609Z,1016.51
2018-05-23T10:18:55.607Z,1016.51
2018-05-23T10:20:05.606Z,1016.48
2018-05-23T10:21:15.595Z,1016.53
2018-05-23T10:22:25.597Z,1016.5
2018-05-23T10:23:35.594Z,1016.53
2018-05-23T10:24:45.332Z,1016.48
2018-05-23T10:25:55.331Z,1016.55
2018-05-23T10:27:05.340Z,1016.56
2018-05-23T10:28:14.829Z,1016.57
2018-05-23T10:29:24.829Z,1016.61
2018-05-23T10:30:34.836Z,1016.61
2018-05-23T10:31:44.830Z,1016.64
2018-05-23T10:32:54.867Z,1016.67
2018-05-23T10:34:04.873Z,1016.62
2018-05-23T10:35:14.895Z,1016.63
2018-05-23T10:36:24.635Z,1016.58
2018-05-23T10:37:34.382Z,1016.6
2018-05-23T10:38:44.361Z,1016.61
2018-05-23T10:39:54.425Z,1016.63
2018-05-23T10:41:04.430Z,1016.64
2018-05-23T10:42:14.422Z,1016.7
2018-05-23T10:43:24.448Z,1016.72
2018-05-23T10:44:34.461Z,1016.74
2018-05-23T10:45:44.482Z,1016.73
2018-05-23T10:46:54.250Z,1016.65
2018-05-23T10:48:04.261Z,1016.73
2018-05-23T10:49:14.300Z,1016.71
2018-05-23T10:50:24.340Z,1016.71
2018-05-23T10:51:34.402Z,1016.69
2018-05-23T10:52:44.767Z,1016.72
2018-05-23T10:53:54.787Z,1016.6
2018-05-23T10:55:04.301Z,1016.7
2018-05-23T10:56:14.053Z,1016.76
2018-05-23T10:57:24.064Z,1016.81
2018-05-23T10:58:34.078Z,1016.77
2018-05-23T10:59:44.143Z,1016.78
2018-05-23T11:00:54.138Z,1016.8
2018-05-23T11:02:04.157Z,1016.8
2018-05-23T11:03:14.170Z,1016.79
2018-05-23T11:04:24.174Z,1016.78
2018-05-23T11:05:33.966Z,1016.74
2018-05-23T11:06:43.857Z,1016.72
2018-05-23T11:07:53.854Z,1016.75
2018-05-23T11:09:03.702Z,1016.77
2018-05-23T11:10:13.867Z,1016.72
2018-05-23T11:11:23.887Z,1016.68
2018-05-23T11:12:33.906Z,1016.74
2018-05-23T11:13:43.428Z,1016.78
2018-05-23T11:14:53.247Z,1016.77
2018-05-23T11:16:03.564Z,1016.78
2018-05-23T11:17:13.606Z,1016.77
2018-05-23T11:18:23.618Z,1016.71
2018-05-23T11:19:33.352Z,1016.69
2018-05-23T11:20:43.089Z,1016.66
2018-05-23T11:21:53.093Z,1016.76
2018-05-23T11:23:03.118Z,1016.8
2018-05-23T11:24:12.872Z,1016.67
2018-05-23T11:25:22.880Z,1016.69
2018-05-23T11:26:32.351Z,1016.67
2018-05-23T11:27:41.831Z,1016.65
2018-05-23T11:28:51.556Z,1016.61
2018-05-23T11:30:01.034Z,1016.64
2018-05-23T11:31:10.772Z,1016.63
2018-05-23T11:32:20.818Z,1016.64
2018-05-23T11:33:30.823Z,1016.59
2018-05-23T11:34:40.837Z,1016.65
2018-05-23T11:35:50.832Z,1016.6
2018-05-23T11:37:00.584Z,1016.59
2018-05-23T11:38:10.620Z,1016.59
2018-05-23T11:39:20.356Z,1016.6
2018-05-23T11:40:30.357Z,1016.64
2018-05-23T11:41:40.155Z,1016.58
2018-05-23T11:42:50.192Z,1016.57
2018-05-23T11:43:59.961Z,1016.56
2018-05-23T11:45:09.705Z,1016.51
2018-05-23T11:46:19.451Z,1016.58
2018-05-23T11:47:29.389Z,1016.45
2018-05-23T11:48:39.396Z,1016.47
2018-05-23T11:49:49.204Z,1016.5
2018-05-23T11:50:58.678Z,1016.51
2018-05-23T11:52:08.184Z,1016.49
2018-05-23T11:53:18.535Z,1016.51
2018-05-23T11:54:28.266Z,1016.47
2018-05-23T11:55:38.622Z,1016.5
2018-05-23T11:56:48.392Z,1016.37
2018-05-23T11:57:58.396Z,1016.43
2018-05-23T11:59:08.135Z,1016.39
2018-05-23T12:00:17.607Z,1016.4
2018-05-23T12:01:27.341Z,1016.48
2018-05-23T12:02:36.817Z,1016.48
2018-05-23T12:03:46.588Z,1016.48
2018-05-23T12:04:56.066Z,1016.5
2018-05-23T12:06:05.830Z,1016.51
2018-05-23T12:07:15.838Z,1016.47
2018-05-23T12:08:25.313Z,1016.49
2018-05-23T12:09:34.858Z,1016.45
2018-05-23T12:10:44.776Z,1016.43
2018-05-23T12:11:54.466Z,1016.49
2018-05-23T12:13:04.493Z,1016.42
2018-05-23T12:14:14.257Z,1016.33
2018-05-23T12:15:24.022Z,1016.44
2018-05-23T12:16:33.786Z,1016.43
2018-05-23T12:17:43.285Z,1016.17
2018-05-23T12:18:53.026Z,1016.48
2018-05-23T12:20:02.777Z,1016.44
2018-05-23T12:21:12.011Z,1016.44
2018-05-23T12:22:21.763Z,1016.47
2018-05-23T12:23:31.775Z,1016.43
2018-05-23T12:24:41.804Z,1016.45
2018-05-23T12:25:51.845Z,1016.46
2018-05-23T12:27:01.593Z,1016.42
2018-05-23T12:28:11.350Z,1016.39
2018-05-23T12:29:21.109Z,1016.42
2018-05-23T12:30:30.865Z,1016.39
2018-05-23T12:31:40.909Z,1016.33
2018-05-23T12:32:50.906Z,1016.32
2018-05-23T12:34:00.645Z,1016.37
2018-05-23T12:35:10.673Z,1016.46
2018-05-23T12:36:20.701Z,1016.39
2018-05-23T12:37:30.183Z,1016.37
2018-05-23T12:38:40.202Z,1016.42
2018-05-23T12:39:49.977Z,1016.42
2018-05-23T12:41:00.090Z,1016.42
2018-05-23T12:42:10.250Z,1016.44
2018-05-23T12:43:19.999Z,1016.45
2018-05-23T12:44:30.043Z,1016.45
2018-05-23T12:45:39.784Z,1016.5
2018-05-23T12:46:49.788Z,1016.48
2018-05-23T12:47:59.827Z,1016.45
2018-05-23T12:49:09.824Z,1016.44
2018-05-23T12:50:19.812Z,1016.42
2018-05-23T12:51:29.823Z,1016.38
2018-05-23T12:52:39.821Z,1016.4
2018-05-23T12:53:49.563Z,1016.39
2018-05-23T12:54:59.040Z,1016.37
2018-05-23T12:56:09.043Z,1016.41
2018-05-23T12:57:18.803Z,1016.42
2018-05-23T12:58:28.560Z,1016.38
2018-05-23T12:59:38.074Z,1016.32
2018-05-23T13:00:47.836Z,1016.33
2018-05-23T13:01:57.824Z,1016.4
2018-05-23T13:03:07.566Z,1016.39
2018-05-23T13:04:17.414Z,1016.39
2018-05-23T13:05:27.176Z,1016.34
2018-05-23T13:06:36.684Z,1016.34
2018-05-23T13:07:46.714Z,1016.33
2018-05-23T13:08:56.194Z,1016.38
2018-05-23T13:10:06.203Z,1016.42
2018-05-23T13:11:16.207Z,1016.38
2018-05-23T13:12:26.021Z,1016.35
2018-05-23T13:13:36.302Z,1016.4
2018-05-23T13:14:46.062Z,1016.42
2018-05-23T13:15:55.800Z,1016.39
2018-05-23T13:17:05.529Z,1016.37
2018-05-23T13:18:15.291Z,1016.34
2018-05-23T13:19:24.500Z,1016.37
2018-05-23T13:20:34.511Z,1016.32
2018-05-23T13:21:44.514Z,1016.34
2018-05-23T13:22:53.985Z,1016.37
2018-05-23T13:24:03.720Z,1016.35
2018-05-23T13:25:13.480Z,1016.31
2018-05-23T13:26:23.475Z,1016.38
2018-05-23T13:27:33.203Z,1016.33
2018-05-23T13:28:43.205Z,1016.33
2018-05-23T13:29:53.215Z,1016.34
2018-05-23T13:31:03.274Z,1016.35
2018-05-23T13:32:13.272Z,1016.35
2018-05-23T13:33:23.276Z,1016.29
2018-05-23T13:34:33.018Z,1016.35
2018-05-23T13:35:43.036Z,1016.29
2018-05-23T13:36:53.051Z,1016.29
2018-05-23T13:38:03.041Z,1016.31
2018-05-23T13:39:13.039Z,1016.33
2018-05-23T13:40:23.059Z,1016.36
2018-05-23T13:41:33.060Z,1016.29
2018-05-23T13:42:43.079Z,1016.28
2018-05-23T13:43:53.092Z,1016.24
2018-05-23T13:45:03.243Z,1016.22
2018-05-23T13:46:13.260Z,1016.25
2018-05-23T13:47:23.273Z,1016.32
2018-05-23T13:48:33.048Z,1016.31
2018-05-23T13:49:43.047Z,1016.32
2018-05-23T13:50:52.798Z,1016.3
2018-05-23T13:52:02.539Z,1016.3
2018-05-23T13:53:12.539Z,1016.31
2018-05-23T13:54:22.274Z,1016.21
2018-05-23T13:55:32.283Z,1016.24
2018-05-23T13:56:42.029Z,1016.31
2018-05-23T13:57:52.030Z,1016.28
2018-05-23T13:59:02.094Z,1016.25
2018-05-23T14:00:12.102Z,1016.28
2018-05-23T14:01:21.872Z,1016.24
2018-05-23T14:02:31.611Z,1016.27
2018-05-23T14:03:41.605Z,1016.22
2018-05-23T14:04:51.354Z,1016.22
2018-05-23T14:06:01.365Z,1016.15
2018-05-23T14:07:11.386Z,1016.1
2018-05-23T14:08:21.417Z,1016.19